EWG28J EDDL-LGAV
Flight info
| Callsign | EWG28J |
|---|---|
| Flight time | 2h 40m |
| Altitude | 35000 |
| Route | DODEN1T DODEN Y853 BOMBI DCT DETEV DCT DINKU/N0445F330 M867 XERUM DCT BAVAX DCT RADIZ/N0446F350 DCT GORPA DCT EVTON DCT AKIKA DCT ENFAR DCT TALAS UM749 ROPOX |
| Aircraft | A321/M-SDE2E3FGIJ1LORWXY/HB1 |
Departure
| Time | 2026-05-05 07:16 |
|---|---|
| Airport | Düsseldorf Airport (EDDL) |
Arrival
| Time | 2026-05-05 09:56 |
|---|---|
| Airport | Athens Eleftherios Venizelos International Airport (LGAV) |
| Time | Latitude | Longitude | Altitude | Speed | Heading |
|---|---|---|---|---|---|
| 2026-05-05 06:49 | 51.28193 | 6.76560 | 126 ft | 0 kts | 96° |
| 2026-05-05 07:04 | 51.28195 | 6.76539 | 125 ft | 3 kts | 109° |
| 2026-05-05 07:04 | 51.28203 | 6.76512 | 125 ft | 3 kts | 140° |
| 2026-05-05 07:05 | 51.28219 | 6.76498 | 126 ft | 3 kts | 170° |
| 2026-05-05 07:05 | 51.28239 | 6.76496 | 128 ft | 3 kts | 189° |
| 2026-05-05 07:05 | 51.28258 | 6.76503 | 126 ft | 3 kts | 204° |
| 2026-05-05 07:05 | 51.28275 | 6.76518 | 127 ft | 3 kts | 225° |
| 2026-05-05 07:06 | 51.28286 | 6.76538 | 124 ft | 3 kts | 233° |
| 2026-05-05 07:06 | 51.28298 | 6.76564 | 125 ft | 3 kts | 233° |
| 2026-05-05 07:06 | 51.28310 | 6.76590 | 124 ft | 3 kts | 232° |
| 2026-05-05 07:06 | 51.28321 | 6.76612 | 124 ft | 1 kts | 232° |
| 2026-05-05 07:07 | 51.28322 | 6.76614 | 124 ft | 0 kts | 232° |
| 2026-05-05 07:09 | 51.28319 | 6.76608 | 128 ft | 2 kts | 232° |
| 2026-05-05 07:09 | 51.28297 | 6.76559 | 125 ft | 8 kts | 252° |
| 2026-05-05 07:09 | 51.28328 | 6.76484 | 124 ft | 10 kts | 350° |
| 2026-05-05 07:10 | 51.28386 | 6.76559 | 124 ft | 12 kts | 51° |
| 2026-05-05 07:10 | 51.28439 | 6.76663 | 123 ft | 12 kts | 53° |
| 2026-05-05 07:10 | 51.28487 | 6.76769 | 124 ft | 11 kts | 52° |
| 2026-05-05 07:10 | 51.28534 | 6.76867 | 126 ft | 11 kts | 54° |
| 2026-05-05 07:11 | 51.28588 | 6.76983 | 125 ft | 15 kts | 53° |
| 2026-05-05 07:11 | 51.28661 | 6.77135 | 126 ft | 17 kts | 52° |
| 2026-05-05 07:11 | 51.28734 | 6.77289 | 125 ft | 18 kts | 52° |
| 2026-05-05 07:11 | 51.28807 | 6.77442 | 128 ft | 16 kts | 53° |
| 2026-05-05 07:12 | 51.28876 | 6.77588 | 124 ft | 17 kts | 52° |
| 2026-05-05 07:12 | 51.28949 | 6.77738 | 128 ft | 17 kts | 53° |
| 2026-05-05 07:12 | 51.29021 | 6.77894 | 129 ft | 17 kts | 53° |
| 2026-05-05 07:12 | 51.29094 | 6.78049 | 132 ft | 17 kts | 53° |
| 2026-05-05 07:13 | 51.29160 | 6.78193 | 136 ft | 15 kts | 54° |
| 2026-05-05 07:13 | 51.29215 | 6.78310 | 141 ft | 12 kts | 52° |
| 2026-05-05 07:13 | 51.29260 | 6.78401 | 145 ft | 10 kts | 51° |
| 2026-05-05 07:13 | 51.29304 | 6.78490 | 148 ft | 9 kts | 51° |
| 2026-05-05 07:14 | 51.29350 | 6.78563 | 151 ft | 9 kts | 28° |
| 2026-05-05 07:14 | 51.29426 | 6.78568 | 152 ft | 12 kts | 355° |
| 2026-05-05 07:14 | 51.29519 | 6.78557 | 154 ft | 11 kts | 354° |
| 2026-05-05 07:14 | 51.29548 | 6.78539 | 155 ft | 2 kts | 271° |
| 2026-05-05 07:15 | 51.29533 | 6.78500 | 153 ft | 0 kts | 233° |
| 2026-05-05 07:15 | 51.29482 | 6.78393 | 149 ft | 43 kts | 232° |
| 2026-05-05 07:15 | 51.29158 | 6.77711 | 135 ft | 112 kts | 233° |
| 2026-05-05 07:16 | 51.28547 | 6.76428 | 128 ft | 170 kts | 233° |
| 2026-05-05 07:16 | 51.27809 | 6.74852 | 677 ft | 174 kts | 234° |
| 2026-05-05 07:16 | 51.27098 | 6.73304 | 1464 ft | 175 kts | 234° |
| 2026-05-05 07:16 | 51.26356 | 6.71686 | 1800 ft | 191 kts | 233° |
| 2026-05-05 07:17 | 51.25535 | 6.69922 | 2180 ft | 204 kts | 233° |
| 2026-05-05 07:17 | 51.24648 | 6.68029 | 2458 ft | 222 kts | 233° |
| 2026-05-05 07:17 | 51.23662 | 6.65939 | 2594 ft | 250 kts | 232° |
| 2026-05-05 07:17 | 51.22336 | 6.64120 | 3181 ft | 257 kts | 204° |
| 2026-05-05 07:18 | 51.20588 | 6.63604 | 3872 ft | 259 kts | 176° |
| 2026-05-05 07:18 | 51.18781 | 6.63905 | 4569 ft | 262 kts | 173° |
| 2026-05-05 07:18 | 51.16955 | 6.64234 | 5266 ft | 265 kts | 174° |
| 2026-05-05 07:18 | 51.15180 | 6.64937 | 5919 ft | 268 kts | 152° |
| 2026-05-05 07:19 | 51.13769 | 6.66855 | 6583 ft | 271 kts | 124° |
| 2026-05-05 07:19 | 51.13088 | 6.69666 | 7223 ft | 277 kts | 96° |
| 2026-05-05 07:19 | 51.13144 | 6.72744 | 7892 ft | 280 kts | 86° |
| 2026-05-05 07:19 | 51.13280 | 6.75865 | 8548 ft | 284 kts | 87° |
| 2026-05-05 07:20 | 51.13409 | 6.79015 | 9190 ft | 287 kts | 87° |
| 2026-05-05 07:20 | 51.13534 | 6.82203 | 9833 ft | 289 kts | 87° |
| 2026-05-05 07:20 | 51.13656 | 6.85447 | 10194 ft | 302 kts | 88° |
| 2026-05-05 07:20 | 51.13782 | 6.88910 | 10319 ft | 322 kts | 88° |
| 2026-05-05 07:21 | 51.13915 | 6.92570 | 10465 ft | 340 kts | 87° |
| 2026-05-05 07:21 | 51.14052 | 6.96376 | 10874 ft | 347 kts | 87° |
| 2026-05-05 07:21 | 51.14190 | 7.00204 | 11436 ft | 351 kts | 88° |
| 2026-05-05 07:21 | 51.14332 | 7.04114 | 12039 ft | 355 kts | 87° |
| 2026-05-05 07:22 | 51.14466 | 7.08079 | 12598 ft | 359 kts | 90° |
| 2026-05-05 07:22 | 51.14146 | 7.12016 | 13098 ft | 361 kts | 108° |
| 2026-05-05 07:22 | 51.13126 | 7.15682 | 13639 ft | 363 kts | 118° |
| 2026-05-05 07:22 | 51.11984 | 7.19300 | 14160 ft | 367 kts | 118° |
| 2026-05-05 07:23 | 51.10825 | 7.22956 | 14693 ft | 371 kts | 118° |
| 2026-05-05 07:23 | 51.09656 | 7.26639 | 15181 ft | 374 kts | 118° |
| 2026-05-05 07:23 | 51.08505 | 7.30311 | 15655 ft | 377 kts | 117° |
| 2026-05-05 07:23 | 51.07399 | 7.34123 | 16119 ft | 381 kts | 115° |
| 2026-05-05 07:24 | 51.06344 | 7.38005 | 16576 ft | 384 kts | 114° |
| 2026-05-05 07:24 | 51.05303 | 7.41954 | 17027 ft | 387 kts | 114° |
| 2026-05-05 07:24 | 51.04260 | 7.45917 | 17482 ft | 391 kts | 114° |
| 2026-05-05 07:24 | 51.03196 | 7.49913 | 17929 ft | 394 kts | 114° |
| 2026-05-05 07:25 | 51.02111 | 7.53934 | 18349 ft | 397 kts | 114° |
| 2026-05-05 07:25 | 51.01007 | 7.57965 | 18728 ft | 400 kts | 115° |
| 2026-05-05 07:25 | 50.99885 | 7.62026 | 19116 ft | 402 kts | 115° |
| 2026-05-05 07:25 | 50.98765 | 7.66058 | 19491 ft | 405 kts | 115° |
| 2026-05-05 07:26 | 50.97463 | 7.70026 | 19876 ft | 405 kts | 124° |
| 2026-05-05 07:26 | 50.95731 | 7.73561 | 20255 ft | 405 kts | 135° |
| 2026-05-05 07:26 | 50.93631 | 7.76537 | 20656 ft | 405 kts | 146° |
| 2026-05-05 07:26 | 50.91264 | 7.78971 | 21042 ft | 405 kts | 150° |
| 2026-05-05 07:27 | 50.88857 | 7.81331 | 21432 ft | 407 kts | 150° |
| 2026-05-05 07:27 | 50.86441 | 7.83701 | 21823 ft | 409 kts | 150° |
| 2026-05-05 07:27 | 50.84014 | 7.86085 | 22207 ft | 411 kts | 150° |
| 2026-05-05 07:27 | 50.81586 | 7.88473 | 22594 ft | 412 kts | 150° |
| 2026-05-05 07:28 | 50.79179 | 7.90841 | 22982 ft | 414 kts | 150° |
| 2026-05-05 07:28 | 50.76726 | 7.93245 | 23385 ft | 415 kts | 150° |
| 2026-05-05 07:28 | 50.74261 | 7.95656 | 23735 ft | 417 kts | 150° |
| 2026-05-05 07:28 | 50.71785 | 7.98074 | 24066 ft | 418 kts | 150° |
| 2026-05-05 07:29 | 50.69295 | 8.00498 | 24393 ft | 419 kts | 151° |
| 2026-05-05 07:29 | 50.66807 | 8.02918 | 24714 ft | 421 kts | 151° |
| 2026-05-05 07:29 | 50.64303 | 8.05350 | 25027 ft | 422 kts | 151° |
| 2026-05-05 07:29 | 50.61799 | 8.07779 | 25342 ft | 424 kts | 151° |
| 2026-05-05 07:30 | 50.59363 | 8.10427 | 25640 ft | 428 kts | 143° |
| 2026-05-05 07:30 | 50.54768 | 8.16473 | 26236 ft | 432 kts | 143° |
| 2026-05-05 07:30 | 50.52486 | 8.19476 | 26522 ft | 434 kts | 143° |
| 2026-05-05 07:31 | 50.50159 | 8.22530 | 26803 ft | 436 kts | 143° |
| 2026-05-05 07:31 | 50.47827 | 8.25585 | 27082 ft | 437 kts | 144° |
| 2026-05-05 07:31 | 50.45479 | 8.28651 | 27356 ft | 439 kts | 144° |
| 2026-05-05 07:31 | 50.43122 | 8.31718 | 27635 ft | 441 kts | 144° |
| 2026-05-05 07:32 | 50.40753 | 8.34794 | 27910 ft | 442 kts | 144° |
| 2026-05-05 07:32 | 50.38381 | 8.37878 | 28195 ft | 444 kts | 144° |
| 2026-05-05 07:32 | 50.35997 | 8.40977 | 28484 ft | 445 kts | 144° |
| 2026-05-05 07:32 | 50.33609 | 8.44078 | 28756 ft | 447 kts | 144° |
| 2026-05-05 07:33 | 50.31204 | 8.47199 | 29041 ft | 448 kts | 144° |
| 2026-05-05 07:33 | 50.28802 | 8.50310 | 29295 ft | 449 kts | 144° |
| 2026-05-05 07:33 | 50.26420 | 8.53389 | 29539 ft | 450 kts | 144° |
| 2026-05-05 07:33 | 50.23994 | 8.56514 | 29779 ft | 451 kts | 145° |
| 2026-05-05 07:34 | 50.21563 | 8.59644 | 30003 ft | 452 kts | 145° |
| 2026-05-05 07:34 | 50.19137 | 8.62766 | 30236 ft | 452 kts | 145° |
| 2026-05-05 07:34 | 50.16705 | 8.65888 | 30519 ft | 451 kts | 145° |
| 2026-05-05 07:34 | 50.14285 | 8.69000 | 30797 ft | 449 kts | 145° |
| 2026-05-05 07:35 | 50.11897 | 8.72067 | 31072 ft | 448 kts | 145° |
| 2026-05-05 07:35 | 50.09493 | 8.75146 | 31335 ft | 447 kts | 145° |
| 2026-05-05 07:35 | 50.07184 | 8.78411 | 31585 ft | 451 kts | 137° |
| 2026-05-05 07:35 | 50.05202 | 8.82236 | 31829 ft | 456 kts | 128° |
| 2026-05-05 07:36 | 50.03624 | 8.86560 | 32065 ft | 461 kts | 120° |
| 2026-05-05 07:36 | 50.02709 | 8.89544 | 32214 ft | 461 kts | 120° |
| 2026-05-05 07:36 | 50.01321 | 8.94046 | 32447 ft | 461 kts | 120° |
| 2026-05-05 07:36 | 49.99925 | 8.98546 | 32684 ft | 460 kts | 120° |
| 2026-05-05 07:37 | 49.98531 | 9.03018 | 32922 ft | 460 kts | 121° |
| 2026-05-05 07:37 | 49.97129 | 9.07486 | 33138 ft | 459 kts | 121° |
| 2026-05-05 07:37 | 49.95727 | 9.11946 | 33383 ft | 459 kts | 121° |
| 2026-05-05 07:37 | 49.94324 | 9.16397 | 33612 ft | 459 kts | 121° |
| 2026-05-05 07:38 | 49.92925 | 9.20839 | 33842 ft | 458 kts | 121° |
| 2026-05-05 07:38 | 49.91519 | 9.25301 | 34039 ft | 458 kts | 121° |
| 2026-05-05 07:38 | 49.90119 | 9.29741 | 34228 ft | 457 kts | 121° |
| 2026-05-05 07:38 | 49.88720 | 9.34172 | 34415 ft | 457 kts | 121° |
| 2026-05-05 07:39 | 49.87334 | 9.38553 | 34594 ft | 457 kts | 121° |
| 2026-05-05 07:39 | 49.85929 | 9.42983 | 34787 ft | 457 kts | 121° |
| 2026-05-05 07:39 | 49.83034 | 9.51718 | 34881 ft | 451 kts | 127° |
| 2026-05-05 07:40 | 49.79047 | 9.59024 | 34885 ft | 440 kts | 142° |
| 2026-05-05 07:40 | 49.74559 | 9.65505 | 34882 ft | 441 kts | 142° |
| 2026-05-05 07:41 | 49.70070 | 9.72007 | 34881 ft | 441 kts | 142° |
| 2026-05-05 07:41 | 49.65605 | 9.78462 | 34885 ft | 442 kts | 142° |
| 2026-05-05 07:42 | 49.61112 | 9.84944 | 34888 ft | 442 kts | 142° |
| 2026-05-05 07:42 | 49.56610 | 9.91427 | 34887 ft | 442 kts | 142° |
| 2026-05-05 07:43 | 49.52106 | 9.97880 | 34900 ft | 442 kts | 142° |
| 2026-05-05 07:43 | 49.47589 | 10.04324 | 34906 ft | 442 kts | 142° |
| 2026-05-05 07:44 | 49.43083 | 10.10745 | 34906 ft | 441 kts | 142° |
| 2026-05-05 07:44 | 49.38595 | 10.17125 | 34909 ft | 441 kts | 142° |
| 2026-05-05 07:45 | 49.34090 | 10.23505 | 34909 ft | 440 kts | 142° |
| 2026-05-05 07:45 | 49.29582 | 10.29885 | 34911 ft | 440 kts | 142° |
| 2026-05-05 07:46 | 49.25063 | 10.36262 | 34916 ft | 440 kts | 143° |
| 2026-05-05 07:46 | 49.20133 | 10.41500 | 34919 ft | 432 kts | 154° |
| 2026-05-05 07:47 | 49.14951 | 10.46205 | 34921 ft | 433 kts | 154° |
| 2026-05-05 07:47 | 49.09771 | 10.50907 | 34919 ft | 433 kts | 154° |
| 2026-05-05 07:48 | 49.04588 | 10.55607 | 34916 ft | 433 kts | 154° |
| 2026-05-05 07:48 | 48.99427 | 10.60275 | 34915 ft | 433 kts | 154° |
| 2026-05-05 07:49 | 48.94241 | 10.64959 | 34912 ft | 434 kts | 154° |
| 2026-05-05 07:49 | 48.89031 | 10.69668 | 34908 ft | 434 kts | 154° |
| 2026-05-05 07:50 | 48.83831 | 10.74351 | 34900 ft | 434 kts | 154° |
| 2026-05-05 07:50 | 48.79087 | 10.80152 | 34892 ft | 444 kts | 136° |
| 2026-05-05 07:51 | 48.74971 | 10.87082 | 34880 ft | 445 kts | 136° |
| 2026-05-05 07:51 | 48.70827 | 10.94042 | 34876 ft | 445 kts | 136° |
| 2026-05-05 07:52 | 48.66664 | 11.01014 | 34874 ft | 445 kts | 136° |
| 2026-05-05 07:52 | 48.62492 | 11.07957 | 34874 ft | 446 kts | 136° |
| 2026-05-05 07:53 | 48.58313 | 11.14893 | 34877 ft | 446 kts | 136° |
| 2026-05-05 07:53 | 48.54137 | 11.21829 | 34881 ft | 446 kts | 136° |
| 2026-05-05 07:54 | 48.49975 | 11.28710 | 34883 ft | 446 kts | 136° |
| 2026-05-05 07:54 | 48.45783 | 11.35611 | 34882 ft | 446 kts | 136° |
| 2026-05-05 07:55 | 48.41585 | 11.42523 | 34892 ft | 446 kts | 136° |
| 2026-05-05 07:55 | 48.37386 | 11.49419 | 34892 ft | 446 kts | 136° |
| 2026-05-05 07:56 | 48.33210 | 11.56244 | 34893 ft | 446 kts | 136° |
| 2026-05-05 07:56 | 48.28990 | 11.63121 | 34895 ft | 447 kts | 136° |
| 2026-05-05 07:57 | 48.24729 | 11.69906 | 34895 ft | 446 kts | 139° |
| 2026-05-05 07:57 | 48.20198 | 11.76240 | 34892 ft | 444 kts | 142° |
| 2026-05-05 07:58 | 48.15550 | 11.82378 | 34890 ft | 445 kts | 142° |
| 2026-05-05 07:58 | 48.10967 | 11.88522 | 34887 ft | 445 kts | 141° |
| 2026-05-05 07:59 | 48.06395 | 11.94782 | 34893 ft | 446 kts | 141° |
| 2026-05-05 07:59 | 48.01821 | 12.01065 | 34883 ft | 446 kts | 141° |
| 2026-05-05 08:00 | 47.97234 | 12.07323 | 34876 ft | 446 kts | 141° |
| 2026-05-05 08:00 | 47.92625 | 12.13564 | 34877 ft | 446 kts | 141° |
| 2026-05-05 08:01 | 47.88022 | 12.19777 | 34877 ft | 447 kts | 141° |
| 2026-05-05 08:01 | 47.83444 | 12.25957 | 34875 ft | 447 kts | 141° |
| 2026-05-05 08:02 | 47.78821 | 12.32188 | 34871 ft | 447 kts | 141° |
| 2026-05-05 08:02 | 47.74207 | 12.38382 | 34876 ft | 447 kts | 141° |
| 2026-05-05 08:03 | 47.69612 | 12.44534 | 34879 ft | 447 kts | 141° |
| 2026-05-05 08:03 | 47.64983 | 12.50710 | 34878 ft | 446 kts | 141° |
| 2026-05-05 08:04 | 47.60539 | 12.57185 | 34883 ft | 449 kts | 135° |
| 2026-05-05 08:04 | 47.56296 | 12.63984 | 34881 ft | 448 kts | 135° |
| 2026-05-05 08:05 | 47.52049 | 12.70762 | 34885 ft | 449 kts | 136° |
| 2026-05-05 08:05 | 47.47800 | 12.77523 | 34884 ft | 449 kts | 136° |
| 2026-05-05 08:06 | 47.43563 | 12.84238 | 34899 ft | 449 kts | 136° |
| 2026-05-05 08:06 | 47.39291 | 12.90991 | 34903 ft | 449 kts | 136° |
| 2026-05-05 08:07 | 47.35019 | 12.97720 | 34907 ft | 449 kts | 136° |
| 2026-05-05 08:07 | 47.30742 | 13.04458 | 34920 ft | 449 kts | 136° |
| 2026-05-05 08:08 | 47.26473 | 13.11174 | 34925 ft | 449 kts | 136° |
| 2026-05-05 08:08 | 47.22217 | 13.17835 | 34932 ft | 449 kts | 136° |
| 2026-05-05 08:09 | 47.17921 | 13.24538 | 34940 ft | 450 kts | 136° |
| 2026-05-05 08:09 | 47.13627 | 13.31224 | 34943 ft | 450 kts | 136° |
| 2026-05-05 08:10 | 47.09320 | 13.37918 | 34952 ft | 450 kts | 136° |
| 2026-05-05 08:10 | 47.05017 | 13.44594 | 34961 ft | 450 kts | 136° |
| 2026-05-05 08:11 | 47.00735 | 13.51215 | 34971 ft | 450 kts | 136° |
| 2026-05-05 08:11 | 46.96420 | 13.57876 | 34975 ft | 450 kts | 136° |
| 2026-05-05 08:12 | 46.92090 | 13.64530 | 34976 ft | 451 kts | 137° |
| 2026-05-05 08:12 | 46.87756 | 13.71171 | 34978 ft | 451 kts | 137° |
| 2026-05-05 08:13 | 46.83445 | 13.77779 | 34973 ft | 451 kts | 137° |
| 2026-05-05 08:13 | 46.79842 | 13.83289 | 34973 ft | 451 kts | 137° |
| 2026-05-05 08:14 | 46.75486 | 13.89924 | 34974 ft | 452 kts | 137° |
| 2026-05-05 08:14 | 46.71130 | 13.96544 | 34981 ft | 452 kts | 137° |
| 2026-05-05 08:15 | 46.66771 | 14.03161 | 34981 ft | 453 kts | 137° |
| 2026-05-05 08:15 | 46.62417 | 14.09751 | 34981 ft | 453 kts | 137° |
| 2026-05-05 08:16 | 46.58039 | 14.16356 | 34984 ft | 453 kts | 137° |
| 2026-05-05 08:16 | 46.53648 | 14.22953 | 34980 ft | 454 kts | 137° |
| 2026-05-05 08:17 | 46.49253 | 14.29551 | 34977 ft | 454 kts | 137° |
| 2026-05-05 08:17 | 46.44852 | 14.36150 | 34988 ft | 455 kts | 137° |
| 2026-05-05 08:18 | 46.40445 | 14.42744 | 35024 ft | 455 kts | 137° |
| 2026-05-05 08:18 | 46.36049 | 14.49284 | 35033 ft | 456 kts | 137° |
| 2026-05-05 08:19 | 46.31609 | 14.55872 | 35029 ft | 455 kts | 137° |
| 2026-05-05 08:19 | 46.27178 | 14.62450 | 35033 ft | 456 kts | 137° |
| 2026-05-05 08:20 | 46.22742 | 14.69029 | 35028 ft | 457 kts | 137° |
| 2026-05-05 08:20 | 46.18316 | 14.75559 | 35030 ft | 458 kts | 137° |
| 2026-05-05 08:21 | 46.13854 | 14.82122 | 35029 ft | 458 kts | 137° |
| 2026-05-05 08:21 | 46.09391 | 14.88677 | 35025 ft | 458 kts | 137° |
| 2026-05-05 08:22 | 46.04923 | 14.95212 | 35023 ft | 457 kts | 137° |
| 2026-05-05 08:22 | 46.00459 | 15.01747 | 35019 ft | 457 kts | 137° |
| 2026-05-05 08:23 | 45.95987 | 15.08274 | 35024 ft | 457 kts | 137° |
| 2026-05-05 08:23 | 45.91524 | 15.14752 | 35020 ft | 457 kts | 137° |
| 2026-05-05 08:24 | 45.87039 | 15.21247 | 35018 ft | 457 kts | 137° |
| 2026-05-05 08:24 | 45.82559 | 15.27735 | 35022 ft | 457 kts | 137° |
| 2026-05-05 08:25 | 45.78096 | 15.34191 | 35022 ft | 457 kts | 137° |
| 2026-05-05 08:25 | 45.73677 | 15.40748 | 35022 ft | 458 kts | 135° |
| 2026-05-05 08:26 | 45.69372 | 15.47503 | 35021 ft | 458 kts | 134° |
| 2026-05-05 08:26 | 45.65120 | 15.54205 | 35031 ft | 458 kts | 134° |
| 2026-05-05 08:27 | 45.60791 | 15.60916 | 35028 ft | 458 kts | 135° |
| 2026-05-05 08:27 | 45.56441 | 15.67585 | 35032 ft | 458 kts | 135° |
| 2026-05-05 08:28 | 45.52080 | 15.74263 | 35038 ft | 459 kts | 135° |
| 2026-05-05 08:28 | 45.47729 | 15.80919 | 35034 ft | 459 kts | 135° |
| 2026-05-05 08:29 | 45.43375 | 15.87558 | 35039 ft | 459 kts | 135° |
| 2026-05-05 08:30 | 45.36858 | 15.97473 | 35034 ft | 459 kts | 135° |
| 2026-05-05 08:30 | 45.32477 | 16.04109 | 35034 ft | 459 kts | 135° |
| 2026-05-05 08:31 | 45.28094 | 16.10743 | 35031 ft | 460 kts | 135° |
| 2026-05-05 08:31 | 45.23714 | 16.17365 | 35035 ft | 460 kts | 135° |
| 2026-05-05 08:32 | 45.19355 | 16.23939 | 35037 ft | 460 kts | 135° |
| 2026-05-05 08:32 | 45.14961 | 16.30551 | 35039 ft | 460 kts | 135° |
| 2026-05-05 08:33 | 45.10560 | 16.37144 | 35037 ft | 460 kts | 135° |
| 2026-05-05 08:33 | 45.06152 | 16.43732 | 35038 ft | 460 kts | 135° |
| 2026-05-05 08:34 | 45.01740 | 16.50321 | 35042 ft | 461 kts | 135° |
| 2026-05-05 08:34 | 44.97331 | 16.56896 | 35040 ft | 461 kts | 135° |
| 2026-05-05 08:35 | 44.92905 | 16.63458 | 35038 ft | 461 kts | 136° |
| 2026-05-05 08:35 | 44.88500 | 16.69967 | 35040 ft | 461 kts | 136° |
| 2026-05-05 08:36 | 44.84066 | 16.76525 | 35039 ft | 462 kts | 135° |
| 2026-05-05 08:36 | 44.79628 | 16.83079 | 35042 ft | 462 kts | 136° |
| 2026-05-05 08:37 | 44.75186 | 16.89629 | 35046 ft | 462 kts | 136° |
| 2026-05-05 08:37 | 44.70726 | 16.96147 | 35046 ft | 462 kts | 137° |
| 2026-05-05 08:38 | 44.66062 | 17.02362 | 35046 ft | 461 kts | 140° |
| 2026-05-05 08:38 | 44.61272 | 17.08301 | 35049 ft | 461 kts | 141° |
| 2026-05-05 08:39 | 44.56450 | 17.14284 | 35047 ft | 462 kts | 140° |
| 2026-05-05 08:39 | 44.51701 | 17.20300 | 35058 ft | 462 kts | 140° |
| 2026-05-05 08:40 | 44.46937 | 17.26371 | 35055 ft | 462 kts | 140° |
| 2026-05-05 08:40 | 44.42163 | 17.32413 | 35064 ft | 462 kts | 140° |
| 2026-05-05 08:41 | 44.37371 | 17.38444 | 35070 ft | 462 kts | 140° |
| 2026-05-05 08:41 | 44.32577 | 17.44463 | 35066 ft | 462 kts | 140° |
| 2026-05-05 08:42 | 44.27793 | 17.50468 | 35078 ft | 463 kts | 140° |
| 2026-05-05 08:42 | 44.23025 | 17.56442 | 35080 ft | 463 kts | 140° |
| 2026-05-05 08:43 | 44.18216 | 17.62441 | 35074 ft | 463 kts | 140° |
| 2026-05-05 08:43 | 44.13407 | 17.68432 | 35077 ft | 463 kts | 140° |
| 2026-05-05 08:44 | 44.08592 | 17.74427 | 35085 ft | 464 kts | 140° |
| 2026-05-05 08:44 | 44.03789 | 17.80385 | 35079 ft | 465 kts | 140° |
| 2026-05-05 08:45 | 43.98946 | 17.86378 | 35088 ft | 466 kts | 140° |
| 2026-05-05 08:45 | 43.94122 | 17.92334 | 35096 ft | 466 kts | 140° |
| 2026-05-05 08:46 | 43.89256 | 17.98319 | 35093 ft | 467 kts | 141° |
| 2026-05-05 08:46 | 43.84385 | 18.04313 | 35095 ft | 467 kts | 141° |
| 2026-05-05 08:47 | 43.79508 | 18.10297 | 35084 ft | 468 kts | 140° |
| 2026-05-05 08:47 | 43.74651 | 18.16248 | 35095 ft | 468 kts | 141° |
| 2026-05-05 08:48 | 43.69757 | 18.22216 | 35103 ft | 469 kts | 141° |
| 2026-05-05 08:48 | 43.64849 | 18.28178 | 35094 ft | 469 kts | 141° |
| 2026-05-05 08:49 | 43.59933 | 18.34146 | 35106 ft | 470 kts | 141° |
| 2026-05-05 08:49 | 43.55024 | 18.40112 | 35116 ft | 470 kts | 141° |
| 2026-05-05 08:50 | 43.50132 | 18.46037 | 35120 ft | 471 kts | 141° |
| 2026-05-05 08:50 | 43.45199 | 18.51987 | 35117 ft | 472 kts | 141° |
| 2026-05-05 08:51 | 43.40249 | 18.57944 | 35110 ft | 472 kts | 141° |
| 2026-05-05 08:51 | 43.35294 | 18.63900 | 35120 ft | 473 kts | 141° |
| 2026-05-05 08:52 | 43.31161 | 18.68856 | 35115 ft | 474 kts | 141° |
| 2026-05-05 08:52 | 43.26189 | 18.74807 | 35113 ft | 474 kts | 141° |
| 2026-05-05 08:53 | 43.21203 | 18.80754 | 35122 ft | 475 kts | 141° |
| 2026-05-05 08:53 | 43.16208 | 18.86710 | 35118 ft | 475 kts | 141° |
| 2026-05-05 08:54 | 43.11231 | 18.92623 | 35125 ft | 476 kts | 141° |
| 2026-05-05 08:54 | 43.06216 | 18.98561 | 35125 ft | 477 kts | 141° |
| 2026-05-05 08:55 | 43.01192 | 19.04515 | 35136 ft | 477 kts | 141° |
| 2026-05-05 08:55 | 42.96158 | 19.10460 | 35131 ft | 478 kts | 141° |
| 2026-05-05 08:56 | 42.91131 | 19.16371 | 35146 ft | 479 kts | 141° |
| 2026-05-05 08:56 | 42.86075 | 19.22325 | 35147 ft | 480 kts | 141° |
| 2026-05-05 08:57 | 42.81013 | 19.28267 | 35144 ft | 480 kts | 141° |
| 2026-05-05 08:57 | 42.75950 | 19.34179 | 35147 ft | 481 kts | 141° |
| 2026-05-05 08:58 | 42.70862 | 19.40109 | 35151 ft | 481 kts | 141° |
| 2026-05-05 08:58 | 42.65768 | 19.46049 | 35160 ft | 482 kts | 141° |
| 2026-05-05 08:59 | 42.60701 | 19.51941 | 35164 ft | 482 kts | 141° |
| 2026-05-05 08:59 | 42.55589 | 19.57863 | 35166 ft | 483 kts | 141° |
| 2026-05-05 09:00 | 42.50497 | 19.63824 | 35170 ft | 484 kts | 140° |
| 2026-05-05 09:00 | 42.45532 | 19.69981 | 35165 ft | 484 kts | 138° |
| 2026-05-05 09:01 | 42.40582 | 19.76200 | 35158 ft | 485 kts | 139° |
| 2026-05-05 09:01 | 42.35601 | 19.82367 | 35164 ft | 485 kts | 139° |
| 2026-05-05 09:02 | 42.30592 | 19.88480 | 35158 ft | 485 kts | 139° |
| 2026-05-05 09:02 | 42.25607 | 19.94545 | 35158 ft | 486 kts | 139° |
| 2026-05-05 09:03 | 42.20589 | 20.00660 | 35165 ft | 485 kts | 139° |
| 2026-05-05 09:03 | 42.15573 | 20.06775 | 35157 ft | 485 kts | 139° |
| 2026-05-05 09:04 | 42.10549 | 20.12877 | 35159 ft | 486 kts | 139° |
| 2026-05-05 09:04 | 42.05516 | 20.18979 | 35161 ft | 486 kts | 139° |
| 2026-05-05 09:05 | 42.00518 | 20.25027 | 35162 ft | 486 kts | 139° |
| 2026-05-05 09:05 | 41.95482 | 20.31110 | 35164 ft | 487 kts | 139° |
| 2026-05-05 09:06 | 41.90421 | 20.37190 | 35165 ft | 487 kts | 139° |
| 2026-05-05 09:06 | 41.85948 | 20.43962 | 35165 ft | 487 kts | 123° |
| 2026-05-05 09:07 | 41.82194 | 20.51532 | 35152 ft | 487 kts | 123° |
| 2026-05-05 09:07 | 41.78434 | 20.59102 | 35173 ft | 488 kts | 123° |
| 2026-05-05 09:08 | 41.74556 | 20.66582 | 35173 ft | 488 kts | 124° |
| 2026-05-05 09:08 | 41.70647 | 20.73946 | 35160 ft | 488 kts | 124° |
| 2026-05-05 09:09 | 41.66705 | 20.81383 | 35176 ft | 489 kts | 124° |
| 2026-05-05 09:09 | 41.62787 | 20.88812 | 35165 ft | 489 kts | 124° |
| 2026-05-05 09:10 | 41.58872 | 20.96254 | 35169 ft | 489 kts | 124° |
| 2026-05-05 09:10 | 41.54956 | 21.03681 | 35170 ft | 489 kts | 124° |
| 2026-05-05 09:11 | 41.51017 | 21.11100 | 35167 ft | 489 kts | 124° |
| 2026-05-05 09:11 | 41.47091 | 21.18475 | 35157 ft | 490 kts | 124° |
| 2026-05-05 09:12 | 41.43149 | 21.25870 | 35152 ft | 489 kts | 124° |
| 2026-05-05 09:12 | 41.39208 | 21.33251 | 35165 ft | 489 kts | 124° |
| 2026-05-05 09:13 | 41.35262 | 21.40645 | 35175 ft | 489 kts | 124° |
| 2026-05-05 09:13 | 41.31296 | 21.48035 | 35157 ft | 489 kts | 124° |
| 2026-05-05 09:14 | 41.27330 | 21.55392 | 35166 ft | 489 kts | 124° |
| 2026-05-05 09:14 | 41.23381 | 21.62700 | 35160 ft | 489 kts | 124° |
| 2026-05-05 09:15 | 41.19407 | 21.70048 | 35168 ft | 489 kts | 124° |
| 2026-05-05 09:15 | 41.15435 | 21.77393 | 35164 ft | 489 kts | 124° |
| 2026-05-05 09:16 | 41.11448 | 21.84729 | 35154 ft | 489 kts | 124° |
| 2026-05-05 09:16 | 41.07142 | 21.91727 | 35158 ft | 491 kts | 136° |
| 2026-05-05 09:17 | 41.01745 | 21.97172 | 35138 ft | 490 kts | 145° |
| 2026-05-05 09:17 | 40.96128 | 22.02340 | 35143 ft | 491 kts | 145° |
| 2026-05-05 09:18 | 40.90512 | 22.07515 | 35140 ft | 491 kts | 145° |
| 2026-05-05 09:18 | 40.84895 | 22.12681 | 35139 ft | 491 kts | 145° |
| 2026-05-05 09:19 | 40.79275 | 22.17836 | 35128 ft | 491 kts | 145° |
| 2026-05-05 09:19 | 40.73665 | 22.22983 | 35125 ft | 491 kts | 145° |
| 2026-05-05 09:20 | 40.68051 | 22.28128 | 35124 ft | 491 kts | 145° |
| 2026-05-05 09:20 | 40.62469 | 22.33219 | 35122 ft | 491 kts | 145° |
| 2026-05-05 09:21 | 40.56845 | 22.38338 | 35121 ft | 491 kts | 145° |
| 2026-05-05 09:21 | 40.51215 | 22.43457 | 35116 ft | 491 kts | 145° |
| 2026-05-05 09:22 | 40.45623 | 22.48538 | 35115 ft | 491 kts | 145° |
| 2026-05-05 09:22 | 40.40000 | 22.53634 | 35123 ft | 491 kts | 145° |
| 2026-05-05 09:23 | 40.34371 | 22.58718 | 35118 ft | 491 kts | 145° |
| 2026-05-05 09:23 | 40.28737 | 22.63788 | 35106 ft | 491 kts | 145° |
| 2026-05-05 09:24 | 40.23098 | 22.68864 | 35119 ft | 491 kts | 145° |
| 2026-05-05 09:24 | 40.17495 | 22.73901 | 35112 ft | 491 kts | 145° |
| 2026-05-05 09:25 | 40.11859 | 22.78956 | 35116 ft | 491 kts | 146° |
| 2026-05-05 09:25 | 40.06214 | 22.84006 | 35109 ft | 491 kts | 145° |
| 2026-05-05 09:26 | 40.00572 | 22.89048 | 35111 ft | 491 kts | 146° |
| 2026-05-05 09:26 | 39.94927 | 22.94081 | 35109 ft | 491 kts | 146° |
| 2026-05-05 09:27 | 39.89270 | 22.99109 | 35108 ft | 491 kts | 146° |
| 2026-05-05 09:27 | 39.83645 | 23.04104 | 35112 ft | 491 kts | 146° |
| 2026-05-05 09:28 | 39.77992 | 23.09114 | 35111 ft | 492 kts | 146° |
| 2026-05-05 09:28 | 39.72328 | 23.14125 | 35111 ft | 492 kts | 146° |
| 2026-05-05 09:29 | 39.66661 | 23.19120 | 35109 ft | 492 kts | 146° |
| 2026-05-05 09:29 | 39.61002 | 23.24100 | 35108 ft | 492 kts | 146° |
| 2026-05-05 09:30 | 39.56282 | 23.28255 | 35113 ft | 492 kts | 146° |
| 2026-05-05 09:30 | 39.49700 | 23.34037 | 35109 ft | 492 kts | 146° |
| 2026-05-05 09:31 | 39.44980 | 23.38162 | 35102 ft | 492 kts | 146° |
| 2026-05-05 09:31 | 39.39304 | 23.43105 | 35094 ft | 492 kts | 146° |
| 2026-05-05 09:31 | 39.36467 | 23.45579 | 34980 ft | 489 kts | 146° |
| 2026-05-05 09:32 | 39.33658 | 23.48030 | 34561 ft | 485 kts | 146° |
| 2026-05-05 09:32 | 39.30875 | 23.50456 | 34126 ft | 481 kts | 146° |
| 2026-05-05 09:32 | 39.28097 | 23.52874 | 33309 ft | 484 kts | 146° |
| 2026-05-05 09:32 | 39.25274 | 23.55323 | 32328 ft | 492 kts | 146° |
| 2026-05-05 09:33 | 39.22426 | 23.57789 | 31657 ft | 491 kts | 146° |
| 2026-05-05 09:33 | 39.19476 | 23.59987 | 31093 ft | 488 kts | 156° |
| 2026-05-05 09:33 | 39.16315 | 23.61527 | 30571 ft | 483 kts | 166° |
| 2026-05-05 09:33 | 39.13033 | 23.62365 | 30022 ft | 477 kts | 176° |
| 2026-05-05 09:34 | 39.09743 | 23.62845 | 29398 ft | 473 kts | 176° |
| 2026-05-05 09:34 | 39.06516 | 23.63313 | 28832 ft | 469 kts | 176° |
| 2026-05-05 09:34 | 39.03278 | 23.63785 | 28276 ft | 465 kts | 176° |
| 2026-05-05 09:34 | 39.00075 | 23.64253 | 27733 ft | 461 kts | 176° |
| 2026-05-05 09:35 | 38.96900 | 23.64718 | 27203 ft | 456 kts | 175° |
| 2026-05-05 09:35 | 38.90673 | 23.65640 | 26154 ft | 448 kts | 175° |
| 2026-05-05 09:35 | 38.87584 | 23.66098 | 25646 ft | 444 kts | 175° |
| 2026-05-05 09:36 | 38.84529 | 23.66550 | 25153 ft | 440 kts | 175° |
| 2026-05-05 09:36 | 38.81509 | 23.66996 | 24836 ft | 432 kts | 175° |
| 2026-05-05 09:36 | 38.78550 | 23.67432 | 24567 ft | 425 kts | 175° |
| 2026-05-05 09:36 | 38.75625 | 23.67863 | 24312 ft | 423 kts | 175° |
| 2026-05-05 09:37 | 38.72698 | 23.68293 | 24057 ft | 421 kts | 175° |
| 2026-05-05 09:37 | 38.69792 | 23.68721 | 23702 ft | 417 kts | 175° |
| 2026-05-05 09:37 | 38.66924 | 23.69142 | 23210 ft | 413 kts | 175° |
| 2026-05-05 09:37 | 38.64074 | 23.69556 | 22733 ft | 409 kts | 176° |
| 2026-05-05 09:38 | 38.61294 | 23.69958 | 22256 ft | 405 kts | 176° |
| 2026-05-05 09:38 | 38.58466 | 23.70369 | 21773 ft | 401 kts | 176° |
| 2026-05-05 09:38 | 38.55739 | 23.70766 | 21312 ft | 398 kts | 176° |
| 2026-05-05 09:38 | 38.52999 | 23.71165 | 20854 ft | 394 kts | 175° |
| 2026-05-05 09:39 | 38.50289 | 23.71560 | 20387 ft | 390 kts | 176° |
| 2026-05-05 09:39 | 38.47604 | 23.71951 | 19945 ft | 386 kts | 176° |
| 2026-05-05 09:39 | 38.44947 | 23.72338 | 19509 ft | 382 kts | 176° |
| 2026-05-05 09:39 | 38.42314 | 23.72720 | 19073 ft | 379 kts | 176° |
| 2026-05-05 09:40 | 38.39706 | 23.73095 | 18646 ft | 375 kts | 176° |
| 2026-05-05 09:40 | 38.37121 | 23.73469 | 18199 ft | 371 kts | 176° |
| 2026-05-05 09:40 | 38.34562 | 23.73840 | 17696 ft | 368 kts | 175° |
| 2026-05-05 09:40 | 38.32023 | 23.74209 | 17215 ft | 365 kts | 175° |
| 2026-05-05 09:41 | 38.29502 | 23.74576 | 16728 ft | 362 kts | 175° |
| 2026-05-05 09:41 | 38.27038 | 23.74934 | 16265 ft | 359 kts | 175° |
| 2026-05-05 09:41 | 38.24563 | 23.75294 | 15810 ft | 357 kts | 175° |
| 2026-05-05 09:41 | 38.22098 | 23.75651 | 15368 ft | 354 kts | 175° |
| 2026-05-05 09:42 | 38.19656 | 23.75890 | 14914 ft | 351 kts | 182° |
| 2026-05-05 09:42 | 38.17250 | 23.75523 | 14472 ft | 346 kts | 196° |
| 2026-05-05 09:42 | 38.14996 | 23.74527 | 14059 ft | 341 kts | 208° |
| 2026-05-05 09:42 | 38.12972 | 23.73004 | 13563 ft | 336 kts | 216° |
| 2026-05-05 09:43 | 38.11031 | 23.71361 | 13045 ft | 335 kts | 216° |
| 2026-05-05 09:43 | 38.09115 | 23.69749 | 12554 ft | 334 kts | 216° |
| 2026-05-05 09:43 | 38.07180 | 23.68126 | 12092 ft | 331 kts | 215° |
| 2026-05-05 09:43 | 38.05264 | 23.66521 | 11664 ft | 329 kts | 215° |
| 2026-05-05 09:44 | 38.03386 | 23.64953 | 11502 ft | 316 kts | 215° |
| 2026-05-05 09:44 | 38.01572 | 23.63442 | 11315 ft | 306 kts | 215° |
| 2026-05-05 09:44 | 37.99805 | 23.61966 | 10987 ft | 303 kts | 215° |
| 2026-05-05 09:44 | 37.98054 | 23.60500 | 10648 ft | 301 kts | 214° |
| 2026-05-05 09:45 | 37.96313 | 23.59042 | 10293 ft | 299 kts | 214° |
| 2026-05-05 09:45 | 37.94572 | 23.57584 | 9967 ft | 297 kts | 214° |
| 2026-05-05 09:45 | 37.92848 | 23.56145 | 9551 ft | 296 kts | 214° |
| 2026-05-05 09:45 | 37.91149 | 23.54728 | 9156 ft | 294 kts | 214° |
| 2026-05-05 09:46 | 37.89438 | 23.53301 | 8766 ft | 293 kts | 214° |
| 2026-05-05 09:46 | 37.87745 | 23.51891 | 8382 ft | 291 kts | 214° |
| 2026-05-05 09:46 | 37.86055 | 23.50485 | 8000 ft | 289 kts | 214° |
| 2026-05-05 09:46 | 37.84381 | 23.49093 | 7709 ft | 284 kts | 214° |
| 2026-05-05 09:47 | 37.82757 | 23.47745 | 7492 ft | 276 kts | 214° |
| 2026-05-05 09:47 | 37.81153 | 23.46413 | 7181 ft | 274 kts | 214° |
| 2026-05-05 09:47 | 37.79553 | 23.45123 | 6925 ft | 273 kts | 207° |
| 2026-05-05 09:47 | 37.77730 | 23.44539 | 6678 ft | 271 kts | 178° |
| 2026-05-05 09:48 | 37.75925 | 23.45102 | 6437 ft | 269 kts | 149° |
| 2026-05-05 09:48 | 37.74576 | 23.46637 | 6186 ft | 265 kts | 121° |
| 2026-05-05 09:48 | 37.73839 | 23.48751 | 5929 ft | 263 kts | 107° |
| 2026-05-05 09:48 | 37.73281 | 23.50953 | 5681 ft | 263 kts | 105° |
| 2026-05-05 09:49 | 37.72745 | 23.53166 | 5492 ft | 264 kts | 105° |
| 2026-05-05 09:49 | 37.72213 | 23.55391 | 5286 ft | 264 kts | 105° |
| 2026-05-05 09:49 | 37.71686 | 23.57606 | 5086 ft | 264 kts | 105° |
| 2026-05-05 09:49 | 37.71163 | 23.59828 | 4889 ft | 264 kts | 105° |
| 2026-05-05 09:50 | 37.70642 | 23.62053 | 4676 ft | 264 kts | 105° |
| 2026-05-05 09:50 | 37.70126 | 23.64270 | 4480 ft | 263 kts | 105° |
| 2026-05-05 09:50 | 37.69906 | 23.66534 | 4273 ft | 259 kts | 82° |
| 2026-05-05 09:50 | 37.70224 | 23.68778 | 4078 ft | 259 kts | 76° |
| 2026-05-05 09:51 | 37.70772 | 23.70898 | 3873 ft | 255 kts | 60° |
| 2026-05-05 09:51 | 37.71849 | 23.72642 | 3667 ft | 245 kts | 38° |
| 2026-05-05 09:51 | 37.73016 | 23.73766 | 3559 ft | 243 kts | 34° |
| 2026-05-05 09:51 | 37.74371 | 23.75044 | 3434 ft | 243 kts | 35° |
| 2026-05-05 09:52 | 37.75722 | 23.76322 | 3327 ft | 240 kts | 35° |
| 2026-05-05 09:52 | 37.77032 | 23.77562 | 3250 ft | 234 kts | 35° |
| 2026-05-05 09:52 | 37.78310 | 23.78770 | 3161 ft | 223 kts | 34° |
| 2026-05-05 09:52 | 37.79522 | 23.79916 | 3073 ft | 215 kts | 34° |
| 2026-05-05 09:53 | 37.80718 | 23.81047 | 3001 ft | 215 kts | 35° |
| 2026-05-05 09:53 | 37.81904 | 23.82170 | 2836 ft | 209 kts | 35° |
| 2026-05-05 09:53 | 37.83078 | 23.83281 | 2530 ft | 212 kts | 35° |
| 2026-05-05 09:53 | 37.84239 | 23.84381 | 2257 ft | 204 kts | 34° |
| 2026-05-05 09:54 | 37.85326 | 23.85412 | 2023 ft | 186 kts | 35° |
| 2026-05-05 09:54 | 37.86315 | 23.86351 | 1757 ft | 169 kts | 33° |
| 2026-05-05 09:54 | 37.87210 | 23.87199 | 1561 ft | 159 kts | 36° |
| 2026-05-05 09:54 | 37.88083 | 23.88026 | 1311 ft | 154 kts | 34° |
| 2026-05-05 09:55 | 37.88944 | 23.88840 | 1100 ft | 155 kts | 36° |
| 2026-05-05 09:55 | 37.89805 | 23.89668 | 921 ft | 154 kts | 36° |
| 2026-05-05 09:55 | 37.90651 | 23.90465 | 720 ft | 149 kts | 35° |
| 2026-05-05 09:55 | 37.91464 | 23.91246 | 524 ft | 145 kts | 36° |
| 2026-05-05 09:56 | 37.92268 | 23.92009 | 321 ft | 144 kts | 35° |
| 2026-05-05 09:56 | 37.93027 | 23.92723 | 272 ft | 119 kts | 37° |
| 2026-05-05 09:56 | 37.93554 | 23.93221 | 280 ft | 70 kts | 36° |
| 2026-05-05 09:56 | 37.93801 | 23.93459 | 281 ft | 32 kts | 41° |
| 2026-05-05 09:57 | 37.93907 | 23.93630 | 283 ft | 19 kts | 60° |
| 2026-05-05 09:57 | 37.93950 | 23.93758 | 283 ft | 12 kts | 81° |
| 2026-05-05 09:57 | 37.93904 | 23.93821 | 284 ft | 10 kts | 178° |
| 2026-05-05 09:57 | 37.93840 | 23.93772 | 286 ft | 12 kts | 216° |
| 2026-05-05 09:58 | 37.93767 | 23.93704 | 282 ft | 14 kts | 216° |
| 2026-05-05 09:58 | 37.93693 | 23.93634 | 284 ft | 14 kts | 217° |
| 2026-05-05 09:58 | 37.93611 | 23.93555 | 280 ft | 16 kts | 217° |
| 2026-05-05 09:58 | 37.93541 | 23.93493 | 280 ft | 4 kts | 216° |
| 2026-05-05 09:59 | 37.93498 | 23.93449 | 279 ft | 13 kts | 218° |
| 2026-05-05 09:59 | 37.93418 | 23.93457 | 279 ft | 13 kts | 131° |
| 2026-05-05 09:59 | 37.93361 | 23.93554 | 282 ft | 14 kts | 126° |
| 2026-05-05 09:59 | 37.93297 | 23.93657 | 279 ft | 15 kts | 128° |
| 2026-05-05 10:00 | 37.93232 | 23.93764 | 280 ft | 15 kts | 127° |
| 2026-05-05 10:00 | 37.93174 | 23.93866 | 280 ft | 13 kts | 127° |
| 2026-05-05 10:00 | 37.93124 | 23.93948 | 280 ft | 10 kts | 127° |
| 2026-05-05 10:00 | 37.93086 | 23.94014 | 281 ft | 8 kts | 126° |
| 2026-05-05 10:01 | 37.93056 | 23.94065 | 283 ft | 7 kts | 128° |
| 2026-05-05 10:01 | 37.93021 | 23.94123 | 281 ft | 10 kts | 127° |
| 2026-05-05 10:01 | 37.92994 | 23.94196 | 284 ft | 7 kts | 87° |
| 2026-05-05 10:01 | 37.93013 | 23.94240 | 282 ft | 4 kts | 47° |
| 2026-05-05 10:02 | 37.93030 | 23.94258 | 282 ft | 3 kts | 38° |
| 2026-05-05 10:02 | 37.93039 | 23.94267 | 282 ft | 0 kts | 38° |
| 2026-05-05 10:02 | 37.93039 | 23.94268 | 282 ft | 0 kts | 38° |
| 2026-05-05 10:02 | 37.93044 | 23.94273 | 282 ft | 0 kts | 38° |
| 2026-05-05 10:07 | 37.93045 | 23.94273 | 283 ft | 0 kts | 38° |
| 2026-05-05 10:37 | 37.93044 | 23.94273 | 282 ft | 0 kts | 38° |